Time;durP1;ratioP1;P1;durP2;ratioP2;P2;SDS_P1;SDS_P2;PMS_P1;PMS_P2;Temp;Humidity;BMP_temperature;BMP_pressure;BME280_temperature;BME280_humidity;BME280_pressure;Samples;Min_cycle;Max_cycle;Signal;HPM_P1;HPM_P2
2021/12/28 00:00:21;;;;;;;75.15;57.15;;;2.90;93.10;;;;;;6097752;23;20406;-77
2021/12/28 00:02:50;;;;;;;81.40;63.45;;;2.90;93.10;;;;;;6072984;23;20444;-78
2021/12/28 00:05:18;;;;;;;87.32;67.63;;;2.90;93.10;;;;;;6071243;23;20463;-80
2021/12/28 00:07:45;;;;;;;78.40;62.20;;;2.90;93.30;;;;;;6072848;23;20884;-81
2021/12/28 00:10:14;;;;;;;64.18;51.55;;;2.80;93.30;;;;;;6046475;23;20428;-78
2021/12/28 00:12:42;;;;;;;60.83;48.78;;;2.70;93.20;;;;;;6073157;23;20381;-79
2021/12/28 00:17:59;;;;;;;59.15;47.83;;;2.80;93.30;;;;;;6098363;23;20377;-79
2021/12/28 00:20:28;;;;;;;59.33;47.47;;;2.70;93.20;;;;;;6069542;23;25069;-81
2021/12/28 00:22:56;;;;;;;68.13;54.65;;;2.70;93.20;;;;;;6072063;23;20881;-79
2021/12/28 00:25:23;;;;;;;69.88;57.55;;;2.70;93.20;;;;;;6070826;23;20377;-78
2021/12/28 00:27:50;;;;;;;69.22;55.47;;;2.50;93.20;;;;;;6070497;23;20835;-79
2021/12/28 00:30:19;;;;;;;62.80;50.20;;;2.50;93.30;;;;;;6071086;23;20376;-81
2021/12/28 00:32:52;;;;;;;57.00;47.50;;;2.50;93.30;;;;;;6070915;23;20381;-78
2021/12/28 00:35:40;;;;;;;58.20;46.80;;;2.50;93.30;;;;;;6069419;23;20397;-80
2021/12/28 00:38:12;;;;;;;55.80;46.90;;;2.50;93.20;;;;;;6070607;23;22601;-77
2021/12/28 00:40:40;;;;;;;57.75;46.30;;;2.60;93.10;;;;;;6069944;23;20909;-78
2021/12/28 00:43:08;;;;;;;52.47;43.20;;;2.60;93.10;;;;;;6070879;23;20425;-79
2021/12/28 00:45:35;;;;;;;55.25;44.42;;;2.60;93.00;;;;;;6069896;23;20381;-78
2021/12/28 00:48:03;;;;;;;60.85;49.88;;;2.60;93.00;;;;;;6071536;23;20408;-78
2021/12/28 00:50:31;;;;;;;60.00;48.85;;;2.70;93.00;;;;;;6069809;23;20428;-80
2021/12/28 00:52:59;;;;;;;60.45;48.67;;;2.70;93.00;;;;;;6095217;23;20408;-80
2021/12/28 00:55:26;;;;;;;65.75;48.92;;;2.70;92.90;;;;;;6070018;23;20389;-78
2021/12/28 00:57:53;;;;;;;80.03;61.35;;;2.70;92.90;;;;;;6070027;23;20381;-78
2021/12/28 01:00:33;;;;;;;72.53;58.35;;;2.70;93.60;;;;;;6069913;23;20377;-81
2021/12/28 01:03:02;;;;;;;62.47;53.45;;;2.70;93.30;;;;;;6070589;23;20404;-79
2021/12/28 01:05:30;;;;;;;61.35;49.92;;;2.70;93.30;;;;;;6069514;23;20378;-81
2021/12/28 01:07:57;;;;;;;59.80;49.53;;;2.70;93.20;;;;;;6070072;23;20477;-81
2021/12/28 01:10:28;;;;;;;68.22;54.10;;;2.70;93.10;;;;;;6069165;23;20405;-79
2021/12/28 01:12:56;;;;;;;54.50;45.55;;;2.70;93.20;;;;;;6071086;23;20382;-78
2021/12/28 01:15:25;;;;;;;54.20;44.53;;;2.70;93.20;;;;;;6070268;23;20462;-80
2021/12/28 01:17:52;;;;;;;56.03;46.67;;;2.70;93.20;;;;;;6071415;23;20381;-78
2021/12/28 01:20:19;;;;;;;66.32;54.38;;;2.70;93.10;;;;;;6094856;23;20377;-79
2021/12/28 01:22:47;;;;;;;58.33;48.53;;;2.60;93.10;;;;;;6093643;23;20380;-81
2021/12/28 01:25:16;;;;;;;58.60;48.23;;;2.60;93.20;;;;;;6095377;23;20433;-80
2021/12/28 01:27:44;;;;;;;60.30;48.08;;;2.70;93.20;;;;;;6068958;23;20377;-78
2021/12/28 01:30:12;;;;;;;57.03;46.25;;;2.70;93.30;;;;;;6070845;23;20381;-78
2021/12/28 01:32:40;;;;;;;52.57;43.27;;;2.70;93.20;;;;;;6069045;23;20754;-78
2021/12/28 01:35:11;;;;;;;53.65;45.03;;;2.70;93.10;;;;;;6069774;23;20385;-80
2021/12/28 01:37:38;;;;;;;56.57;46.47;;;2.80;93.10;;;;;;6069582;23;20401;-78
2021/12/28 01:40:12;;;;;;;57.67;47.17;;;2.80;93.00;;;;;;6070253;23;20775;-81
2021/12/28 01:43:07;;;;;;;52.63;42.10;;;2.80;93.00;;;;;;6068534;23;25060;-79
2021/12/28 01:45:42;;;;;;;55.28;45.92;;;2.90;93.00;;;;;;6069836;23;25142;-80
2021/12/28 01:48:13;;;;;;;60.22;49.05;;;3.00;93.10;;;;;;6070084;23;25073;-80
2021/12/28 01:50:40;;;;;;;70.32;55.03;;;3.00;93.00;;;;;;6069181;23;20374;-78
2021/12/28 01:53:08;;;;;;;64.72;53.95;;;3.00;93.30;;;;;;6094300;23;20373;-78
2021/12/28 01:55:37;;;;;;;58.55;48.25;;;2.80;93.30;;;;;;6069216;23;20401;-80
2021/12/28 01:58:05;;;;;;;55.25;46.72;;;2.80;93.40;;;;;;6070130;23;20771;-81
2021/12/28 02:00:32;;;;;;;56.28;46.42;;;2.90;93.50;;;;;;6069440;23;20373;-79
2021/12/28 02:03:08;;;;;;;57.20;45.33;;;2.90;93.40;;;;;;6069162;23;20853;-77
2021/12/28 02:05:36;;;;;;;64.38;52.15;;;3.00;93.30;;;;;;6070627;23;25072;-81
2021/12/28 02:08:05;;;;;;;62.50;51.72;;;2.90;93.30;;;;;;6069529;23;20369;-78
2021/12/28 02:10:33;;;;;;;59.95;49.17;;;2.90;93.30;;;;;;6069608;23;20401;-78
2021/12/28 02:13:01;;;;;;;54.40;43.90;;;2.90;93.40;;;;;;6071426;23;20401;-78
2021/12/28 02:15:28;;;;;;;50.70;42.78;;;2.90;93.40;;;;;;6067962;23;20401;-78
2021/12/28 02:17:55;;;;;;;53.17;44.60;;;2.90;93.40;;;;;;6068990;23;20460;-80
2021/12/28 02:20:22;;;;;;;53.05;42.63;;;3.00;93.30;;;;;;6092773;23;20437;-81
2021/12/28 02:22:49;;;;;;;56.38;45.58;;;3.00;93.60;;;;;;6095166;23;20386;-79
2021/12/28 02:25:17;;;;;;;57.95;48.00;;;3.00;93.30;;;;;;6069807;23;20392;-79
2021/12/28 02:27:45;;;;;;;55.53;44.97;;;3.10;93.20;;;;;;6068612;23;20396;-80
2021/12/28 02:30:17;;;;;;;57.38;45.90;;;3.00;93.10;;;;;;6069857;23;20377;-79
2021/12/28 02:32:46;;;;;;;53.17;42.88;;;3.10;93.10;;;;;;6068759;23;20381;-77
2021/12/28 02:35:26;;;;;;;54.65;44.42;;;3.10;93.10;;;;;;6069697;23;20688;-77
2021/12/28 02:37:54;;;;;;;53.78;43.83;;;3.10;93.20;;;;;;6044845;23;25070;-80
2021/12/28 02:40:24;;;;;;;49.83;41.63;;;3.10;93.20;;;;;;6095212;23;20746;-79
2021/12/28 02:42:55;;;;;;;49.00;40.80;;;3.20;93.20;;;;;;6070225;23;21539;-79
2021/12/28 02:45:28;;;;;;;54.35;44.53;;;3.20;93.20;;;;;;6069111;23;20395;-79
2021/12/28 02:47:55;;;;;;;52.55;41.78;;;3.20;93.10;;;;;;6068241;23;20380;-81
2021/12/28 02:50:28;;;;;;;44.10;37.55;;;3.20;93.10;;;;;;6095607;23;20381;-80
2021/12/28 02:52:55;;;;;;;38.63;31.10;;;3.20;93.10;;;;;;6070531;23;20388;-78
2021/12/28 02:55:26;;;;;;;22.63;18.70;;;3.20;93.10;;;;;;6069875;23;20377;-78
2021/12/28 02:58:00;;;;;;;17.50;14.80;;;3.30;92.90;;;;;;6068676;23;20525;-77
2021/12/28 03:00:44;;;;;;;18.33;14.75;;;3.50;92.30;;;;;;6069547;23;20424;-80
2021/12/28 03:03:17;;;;;;;16.80;14.00;;;3.50;92.10;;;;;;6068740;23;20377;-79
2021/12/28 03:05:47;;;;;;;18.60;15.43;;;3.50;91.90;;;;;;6070060;23;20766;-78
2021/12/28 03:08:16;;;;;;;23.58;19.20;;;3.60;91.70;;;;;;6068592;23;20503;-80
2021/12/28 03:10:45;;;;;;;42.10;35.20;;;3.60;91.60;;;;;;6069920;23;20424;-81
2021/12/28 03:13:21;;;;;;;46.50;38.50;;;3.30;91.70;;;;;;6068182;23;20401;-79
2021/12/28 03:15:48;;;;;;;42.38;33.50;;;3.20;92.10;;;;;;6069481;23;25076;-79
2021/12/28 03:18:15;;;;;;;33.40;28.05;;;3.20;92.30;;;;;;6094074;23;20388;-79
2021/12/28 03:20:43;;;;;;;32.97;27.50;;;3.20;92.40;;;;;;6069331;23;20862;-78
2021/12/28 03:23:17;;;;;;;35.30;30.15;;;3.20;92.20;;;;;;6093850;23;20381;-77
2021/12/28 03:25:45;;;;;;;38.13;31.58;;;3.30;92.10;;;;;;6069473;23;20611;-77
2021/12/28 03:28:23;;;;;;;36.40;30.10;;;3.40;92.00;;;;;;6068564;23;20397;-78
2021/12/28 03:30:56;;;;;;;29.80;25.55;;;3.40;91.80;;;;;;6069894;23;25065;-78
2021/12/28 03:33:27;;;;;;;25.17;19.95;;;3.40;91.80;;;;;;6068957;23;25083;-77
2021/12/28 03:35:54;;;;;;;18.40;15.25;;;3.40;91.80;;;;;;6069477;23;20434;-77
2021/12/28 03:38:22;;;;;;;18.08;14.13;;;3.40;91.90;;;;;;6069369;23;20454;-79
2021/12/28 03:40:49;;;;;;;16.13;13.25;;;3.40;91.90;;;;;;6070100;23;20436;-79
2021/12/28 03:43:17;;;;;;;17.27;13.27;;;3.40;91.80;;;;;;6068336;23;20433;-80
2021/12/28 03:45:45;;;;;;;13.13;11.65;;;3.60;91.80;;;;;;6076114;23;20931;-78
2021/12/28 03:48:13;;;;;;;16.52;12.88;;;3.60;91.60;;;;;;6097465;23;20414;-80
2021/12/28 03:50:40;;;;;;;20.88;17.25;;;3.70;91.40;;;;;;6123867;23;20883;-79
2021/12/28 03:53:08;;;;;;;35.28;30.05;;;3.70;91.30;;;;;;6098489;23;20443;-77
2021/12/28 03:55:35;;;;;;;29.40;25.75;;;3.50;91.20;;;;;;6097698;23;20380;-80
2021/12/28 03:58:04;;;;;;;27.67;23.75;;;3.30;91.60;;;;;;6096942;23;20848;-79
2021/12/28 04:00:35;;;;;;;30.40;26.13;;;3.30;91.70;;;;;;6098198;23;20867;-81
2021/12/28 04:03:02;;;;;;;33.80;28.93;;;3.40;91.70;;;;;;6097598;23;20461;-80
2021/12/28 04:05:29;;;;;;;40.47;32.67;;;3.40;91.70;;;;;;6098228;23;20406;-78
2021/12/28 04:07:56;;;;;;;41.45;34.70;;;3.40;91.70;;;;;;6098023;23;20391;-77
2021/12/28 04:10:37;;;;;;;38.85;32.03;;;3.30;92.00;;;;;;6097772;23;20364;-77
2021/12/28 04:13:04;;;;;;;39.03;31.92;;;3.20;92.10;;;;;;6123225;23;20380;-80
2021/12/28 04:15:31;;;;;;;38.47;32.08;;;3.20;92.10;;;;;;6097329;23;20868;-79
2021/12/28 04:17:58;;;;;;;34.13;29.45;;;3.30;92.00;;;;;;6098411;23;20435;-78
2021/12/28 04:20:25;;;;;;;32.58;28.50;;;3.20;92.00;;;;;;6097475;23;20394;-78
2021/12/28 04:22:52;;;;;;;36.92;29.30;;;3.30;92.00;;;;;;6098383;23;20383;-78
2021/12/28 04:25:19;;;;;;;33.55;29.15;;;3.30;92.00;;;;;;6096912;23;20383;-78
2021/12/28 04:27:46;;;;;;;31.25;25.83;;;3.30;92.00;;;;;;6122924;23;20383;-77
2021/12/28 04:30:15;;;;;;;30.77;25.20;;;3.30;91.90;;;;;;6097430;23;20788;-79
2021/12/28 04:32:44;;;;;;;33.78;28.63;;;3.30;91.80;;;;;;6098328;23;20433;-81
2021/12/28 04:35:12;;;;;;;34.53;29.27;;;3.40;91.80;;;;;;6096702;23;20884;-80
2021/12/28 04:37:40;;;;;;;36.50;30.02;;;3.40;91.80;;;;;;6100311;23;20412;-77
2021/12/28 04:40:10;;;;;;;34.50;29.57;;;3.40;91.70;;;;;;6124189;23;20379;-79
2021/12/28 04:42:39;;;;;;;38.77;31.03;;;3.40;91.80;;;;;;6099575;23;20386;-80
2021/12/28 04:45:09;;;;;;;34.17;28.47;;;3.40;91.80;;;;;;6099774;23;20393;-79
2021/12/28 04:47:37;;;;;;;33.72;27.83;;;3.40;91.80;;;;;;6071101;23;20419;-77
2021/12/28 04:50:06;;;;;;;33.33;26.58;;;3.40;91.90;;;;;;6069622;23;20451;-80
2021/12/28 04:52:36;;;;;;;32.22;26.92;;;3.40;92.00;;;;;;6070926;23;20440;-78
2021/12/28 04:55:09;;;;;;;28.52;23.48;;;3.40;91.90;;;;;;6071947;23;20388;-80
2021/12/28 04:57:37;;;;;;;26.02;21.15;;;3.40;92.00;;;;;;6070916;23;20877;-81
2021/12/28 05:00:08;;;;;;;19.92;17.38;;;3.50;91.90;;;;;;6069986;23;20891;-79
2021/12/28 05:02:35;;;;;;;19.02;15.75;;;3.60;91.70;;;;;;6070347;23;20384;-79
2021/12/28 05:05:03;;;;;;;16.38;13.93;;;3.60;91.60;;;;;;6071558;23;20385;-80
2021/12/28 05:07:30;;;;;;;15.45;12.13;;;3.70;91.40;;;;;;6095673;23;20381;-80
2021/12/28 05:09:58;;;;;;;14.73;11.15;;;3.80;91.10;;;;;;6070717;23;20388;-78
2021/12/28 05:12:27;;;;;;;13.40;11.88;;;4.00;90.60;;;;;;6070490;23;20409;-78
2021/12/28 05:14:56;;;;;;;14.00;11.77;;;4.00;90.30;;;;;;6070211;23;20441;-80
2021/12/28 05:17:23;;;;;;;13.77;10.70;;;4.10;90.10;;;;;;6069683;23;20386;-78
2021/12/28 05:19:50;;;;;;;15.07;11.32;;;4.10;90.00;;;;;;6070606;23;20389;-78
2021/12/28 05:22:17;;;;;;;12.85;10.70;;;4.20;90.00;;;;;;6070323;23;20382;-78
2021/12/28 05:24:44;;;;;;;13.57;10.85;;;4.20;90.00;;;;;;6070097;23;20384;-80
2021/12/28 05:27:11;;;;;;;14.73;11.38;;;4.20;89.90;;;;;;6069707;23;20393;-79
2021/12/28 05:29:38;;;;;;;14.50;11.40;;;4.30;89.60;;;;;;6070531;23;20377;-80
2021/12/28 05:32:06;;;;;;;13.38;11.20;;;4.40;88.90;;;;;;6070364;23;20385;-81
2021/12/28 05:34:33;;;;;;;11.75;10.43;;;4.40;88.90;;;;;;6068955;23;20381;-80
2021/12/28 05:37:00;;;;;;;13.63;10.25;;;4.40;89.10;;;;;;6069539;23;20922;-78
2021/12/28 05:39:26;;;;;;;14.20;10.70;;;4.30;89.20;;;;;;6069555;23;20433;-81
2021/12/28 05:41:53;;;;;;;13.18;10.63;;;4.40;88.50;;;;;;6095428;23;20381;-78
2021/12/28 05:44:20;;;;;;;12.23;10.57;;;4.40;88.50;;;;;;6069588;23;20373;-80
2021/12/28 05:46:47;;;;;;;12.65;11.35;;;4.40;88.00;;;;;;6089928;23;20430;-79
2021/12/28 05:49:14;;;;;;;16.20;13.35;;;4.50;87.90;;;;;;6098358;23;20375;-81
2021/12/28 05:51:42;;;;;;;16.65;14.00;;;4.50;87.80;;;;;;6099684;23;20372;-79
2021/12/28 05:54:12;;;;;;;16.95;13.25;;;4.50;88.00;;;;;;6124005;23;20844;-81
2021/12/28 05:56:39;;;;;;;16.58;13.88;;;4.40;88.30;;;;;;6098769;23;20379;-78
2021/12/28 05:59:06;;;;;;;14.50;12.30;;;4.40;88.70;;;;;;6099910;23;20379;-78
2021/12/28 06:01:33;;;;;;;14.73;12.43;;;4.30;89.00;;;;;;6123853;23;20816;-78
2021/12/28 06:04:00;;;;;;;12.85;10.80;;;4.30;89.30;;;;;;6099429;23;20716;-79
2021/12/28 06:06:27;;;;;;;11.93;10.15;;;4.30;89.40;;;;;;6097471;23;20379;-78
2021/12/28 06:08:57;;;;;;;13.07;10.90;;;4.40;88.90;;;;;;6099755;23;20388;-78
2021/12/28 06:11:24;;;;;;;16.48;13.25;;;4.40;89.60;;;;;;6097347;23;20924;-79
2021/12/28 06:13:51;;;;;;;24.15;20.67;;;4.30;88.70;;;;;;6098570;23;20387;-78
2021/12/28 06:16:23;;;;;;;31.48;26.35;;;4.20;89.40;;;;;;6098600;23;20935;-78
2021/12/28 06:18:50;;;;;;;29.80;25.10;;;4.00;90.20;;;;;;6123920;23;20386;-81
2021/12/28 06:21:17;;;;;;;29.27;24.45;;;3.90;90.40;;;;;;6097432;23;20380;-81
2021/12/28 06:23:45;;;;;;;26.53;23.00;;;3.90;90.80;;;;;;6099005;23;20470;-78
2021/12/28 06:26:12;;;;;;;26.20;23.17;;;3.90;90.50;;;;;;6097573;23;20459;-80
2021/12/28 06:28:39;;;;;;;31.50;26.92;;;3.90;90.50;;;;;;6123823;23;20376;-80
2021/12/28 06:31:06;;;;;;;29.20;25.40;;;3.90;90.70;;;;;;6099710;23;20388;-79
2021/12/28 06:33:33;;;;;;;28.80;24.52;;;3.80;90.80;;;;;;6097484;23;20825;-78
2021/12/28 06:36:01;;;;;;;28.00;23.65;;;3.80;90.90;;;;;;6097248;23;20475;-79
2021/12/28 06:38:28;;;;;;;30.50;24.58;;;3.80;90.90;;;;;;6097008;23;20435;-80
2021/12/28 06:40:54;;;;;;;28.98;24.05;;;3.90;90.80;;;;;;6098845;23;20382;-78
2021/12/28 06:43:21;;;;;;;30.00;25.43;;;3.90;90.80;;;;;;6097354;23;20380;-79
2021/12/28 06:45:50;;;;;;;32.13;25.33;;;3.90;90.80;;;;;;6098230;23;20390;-79
2021/12/28 06:48:17;;;;;;;27.92;24.25;;;3.80;90.90;;;;;;6098013;23;20379;-81
2021/12/28 06:50:44;;;;;;;24.90;21.57;;;3.90;90.90;;;;;;6097597;23;20439;-81
2021/12/28 06:53:11;;;;;;;26.98;21.92;;;3.90;90.90;;;;;;6098362;23;20875;-81
2021/12/28 06:55:38;;;;;;;32.53;25.50;;;3.90;90.80;;;;;;6097386;23;20375;-80
2021/12/28 06:58:08;;;;;;;38.63;30.35;;;3.90;90.80;;;;;;6074970;23;20439;-80
2021/12/28 07:00:37;;;;;;;35.35;27.35;;;4.00;90.90;;;;;;6073576;23;20383;-78
2021/12/28 07:03:05;;;;;;;20.30;15.30;;;4.00;90.90;;;;;;6095687;23;20407;-78
2021/12/28 07:05:32;;;;;;;15.27;12.07;;;4.10;90.90;;;;;;6093415;23;20384;-80
2021/12/28 07:07:59;;;;;;;10.85;9.68;;;4.30;90.70;;;;;;6071982;23;20380;-82
2021/12/28 07:10:27;;;;;;;12.77;9.32;;;4.40;90.30;;;;;;6093514;23;20907;-78
2021/12/28 07:12:54;;;;;;;10.90;8.75;;;4.60;89.80;;;;;;6095678;23;20452;-79
2021/12/28 07:15:21;;;;;;;9.70;8.70;;;4.70;89.00;;;;;;6094163;23;20394;-82
2021/12/28 07:17:49;;;;;;;10.68;9.00;;;4.80;88.70;;;;;;6075669;23;20372;-80
2021/12/28 07:20:17;;;;;;;10.77;9.10;;;4.90;88.50;;;;;;6091107;23;20379;-80
2021/12/28 07:22:44;;;;;;;10.45;8.88;;;4.90;88.40;;;;;;6093539;23;20372;-80
2021/12/28 07:25:11;;;;;;;11.77;9.27;;;4.90;88.30;;;;;;6097997;23;20376;-79
2021/12/28 07:27:39;;;;;;;11.60;9.15;;;4.90;88.20;;;;;;6095193;23;20364;-80
2021/12/28 07:30:09;;;;;;;11.63;9.80;;;4.90;88.00;;;;;;6097414;23;20454;-79
2021/12/28 07:32:36;;;;;;;10.90;9.27;;;5.00;88.00;;;;;;6095335;23;20434;-78
2021/12/28 07:35:05;;;;;;;12.52;9.65;;;5.00;88.10;;;;;;6073266;23;20435;-77
2021/12/28 07:37:33;;;;;;;12.30;9.90;;;5.10;87.90;;;;;;6071707;23;20840;-80
2021/12/28 07:40:00;;;;;;;14.85;11.18;;;5.10;87.70;;;;;;6096688;23;20860;-80
2021/12/28 07:42:27;;;;;;;13.37;10.30;;;5.10;87.80;;;;;;6095906;23;20372;-78
2021/12/28 07:44:54;;;;;;;12.00;9.40;;;5.20;87.60;;;;;;6097028;23;20412;-79
2021/12/28 07:47:21;;;;;;;11.07;9.15;;;5.20;87.10;;;;;;6095649;23;20454;-79
2021/12/28 07:49:49;;;;;;;11.93;9.63;;;5.30;86.70;;;;;;6097434;23;20739;-79
2021/12/28 07:52:16;;;;;;;10.02;8.48;;;5.30;86.80;;;;;;6070569;23;20372;-79
2021/12/28 07:54:43;;;;;;;10.68;8.70;;;5.30;86.90;;;;;;6096843;23;20379;-79
2021/12/28 07:57:10;;;;;;;12.33;9.80;;;5.40;86.60;;;;;;6096100;23;20406;-78
2021/12/28 07:59:37;;;;;;;11.80;9.20;;;5.40;86.40;;;;;;6097009;23;20434;-79
2021/12/28 08:02:04;;;;;;;11.27;9.10;;;5.40;86.60;;;;;;6096766;23;20375;-78
2021/12/28 08:04:31;;;;;;;17.17;13.18;;;5.40;86.70;;;;;;6097155;23;20911;-82
2021/12/28 08:06:58;;;;;;;28.93;23.07;;;5.50;86.30;;;;;;6095174;23;20454;-79
2021/12/28 08:09:25;;;;;;;27.13;22.10;;;5.40;86.20;;;;;;6097183;23;20765;-80
2021/12/28 08:11:52;;;;;;;26.75;21.95;;;5.40;86.40;;;;;;6074035;23;20375;-78
2021/12/28 08:14:19;;;;;;;26.23;21.50;;;5.30;87.00;;;;;;6096081;23;20678;-80
2021/12/28 08:16:47;;;;;;;27.35;22.80;;;5.20;87.40;;;;;;6095876;23;20383;-79
2021/12/28 08:19:15;;;;;;;26.98;22.00;;;5.20;87.70;;;;;;6100314;23;20386;-79
2021/12/28 08:21:44;;;;;;;26.87;23.43;;;5.20;88.00;;;;;;6098506;23;20955;-80
2021/12/28 08:24:12;;;;;;;29.25;23.77;;;5.10;88.30;;;;;;6098799;23;20383;-82
2021/12/28 08:26:39;;;;;;;27.65;23.80;;;5.10;88.40;;;;;;6097928;23;20374;-79
2021/12/28 08:29:06;;;;;;;29.23;24.23;;;5.10;88.70;;;;;;6074974;23;20721;-79
2021/12/28 08:31:34;;;;;;;28.93;23.87;;;5.20;88.90;;;;;;6098504;23;20438;-81
2021/12/28 08:34:03;;;;;;;32.78;27.23;;;5.20;88.70;;;;;;6074704;23;20391;-79
2021/12/28 08:36:30;;;;;;;34.83;29.58;;;5.20;89.00;;;;;;6123149;23;20388;-79
2021/12/28 08:38:58;;;;;;;30.95;26.05;;;5.10;89.60;;;;;;6123639;23;20383;-81
2021/12/28 08:41:25;;;;;;;30.75;25.40;;;5.00;90.10;;;;;;6097873;23;20376;-78
2021/12/28 08:43:52;;;;;;;28.83;24.05;;;5.00;90.40;;;;;;6101007;23;20383;-79
2021/12/28 08:46:21;;;;;;;24.98;20.88;;;5.10;90.40;;;;;;6098125;23;20449;-79
2021/12/28 08:48:48;;;;;;;18.85;14.10;;;5.20;90.30;;;;;;6100902;23;20844;-79
2021/12/28 08:51:15;;;;;;;13.07;9.85;;;5.30;89.90;;;;;;6099033;23;20458;-80
2021/12/28 08:53:42;;;;;;;12.18;9.38;;;5.50;88.60;;;;;;6097835;23;20374;-82
2021/12/28 08:56:09;;;;;;;13.17;9.70;;;5.60;87.70;;;;;;6098617;23;20383;-81
2021/12/28 08:58:37;;;;;;;12.55;9.63;;;5.70;87.20;;;;;;6099065;23;20383;-81
2021/12/28 09:01:04;;;;;;;14.35;10.88;;;5.80;86.80;;;;;;6097288;23;20375;-77
2021/12/28 09:03:32;;;;;;;14.95;11.35;;;5.90;86.20;;;;;;6097726;23;20386;-78
2021/12/28 09:06:00;;;;;;;20.02;15.85;;;6.00;85.90;;;;;;6101840;23;20876;-80
2021/12/28 09:08:27;;;;;;;17.92;14.18;;;6.00;86.40;;;;;;6123375;23;20403;-78
2021/12/28 09:10:54;;;;;;;24.70;19.88;;;6.10;86.70;;;;;;6100063;23;20383;-77
2021/12/28 09:13:21;;;;;;;22.98;20.48;;;6.10;87.10;;;;;;6124427;23;20395;-78
2021/12/28 09:15:48;;;;;;;23.33;18.67;;;6.10;87.10;;;;;;6125375;23;20391;-80
2021/12/28 09:18:15;;;;;;;20.55;17.60;;;6.20;87.40;;;;;;6102217;23;20383;-77
2021/12/28 09:20:43;;;;;;;17.27;13.30;;;6.40;87.00;;;;;;6102931;23;20380;-79
2021/12/28 09:23:12;;;;;;;11.93;9.70;;;6.50;86.40;;;;;;6099923;23;20384;-80
2021/12/28 09:25:39;;;;;;;11.75;9.30;;;6.70;85.30;;;;;;6099537;23;20380;-77
2021/12/28 09:28:08;;;;;;;9.95;7.47;;;6.80;84.20;;;;;;6101794;23;20372;-80
2021/12/28 09:30:37;;;;;;;11.52;7.70;;;7.00;83.40;;;;;;6101367;23;20379;-80
2021/12/28 09:33:04;;;;;;;;;;;7.20;82.60;;;;;;6100861;23;20022;-78
2021/12/28 09:35:32;;;;;;;6.97;5.47;;;7.30;81.30;;;;;;6127196;23;19924;-80
2021/12/28 09:37:59;;;;;;;6.90;5.75;;;7.50;79.50;;;;;;6103119;23;20487;-80
2021/12/28 09:40:29;;;;;;;8.30;5.05;;;7.70;78.50;;;;;;6099743;23;20475;-80
2021/12/28 09:42:56;;;;;;;;;;;7.70;77.80;;;;;;6102510;23;20033;-80
2021/12/28 09:45:23;;;;;;;;;;;7.70;77.60;;;;;;6101189;23;19917;-80
2021/12/28 09:47:50;;;;;;;;;;;7.70;77.60;;;;;;6073334;23;20456;-80
2021/12/28 09:50:17;;;;;;;;;;;7.80;77.90;;;;;;6072865;23;19917;-80
2021/12/28 09:52:46;;;;;;;;;;;7.80;78.40;;;;;;6074131;23;19951;-77
2021/12/28 09:55:14;;;;;;;;;;;7.90;79.20;;;;;;6073091;23;19992;-80
2021/12/28 09:57:41;;;;;;;;;;;8.00;77.90;;;;;;6071905;23;19928;-80
2021/12/28 10:00:09;;;;;;;;;;;8.10;76.80;;;;;;6074600;23;19921;-80
2021/12/28 10:02:38;;;;;;;;;;;8.20;75.80;;;;;;6073213;23;19921;-80
2021/12/28 10:05:07;;;;;;;;;;;8.30;75.50;;;;;;6073672;23;19924;-79
2021/12/28 10:07:35;;;;;;;;;;;8.30;75.80;;;;;;6073205;23;19918;-80
2021/12/28 10:10:05;;;;;;;;;;;8.40;75.70;;;;;;6073538;23;19947;-80
2021/12/28 10:12:33;;;;;;;;;;;8.40;75.60;;;;;;6070668;23;19917;-77
2021/12/28 10:15:02;;;;;;;;;;;8.50;76.00;;;;;;6073708;23;19979;-80
2021/12/28 10:17:30;;;;;;;;;;;8.60;75.80;;;;;;6071162;23;20394;-80
2021/12/28 10:19:58;;;;;;;;;;;8.60;75.70;;;;;;6072794;23;19921;-79
2021/12/28 10:22:33;;;;;;;;;;;8.60;75.80;;;;;;6072309;23;19956;-80
2021/12/28 10:25:02;;;;;;;;;;;8.70;76.10;;;;;;6071679;23;19953;-77
2021/12/28 10:27:30;;;;;;;;;;;8.60;75.50;;;;;;6072503;23;19972;-78
2021/12/28 10:30:03;;;;;;;;;;;8.60;76.50;;;;;;6071684;23;19925;-80
2021/12/28 10:32:30;;;;;;;;;;;8.60;76.30;;;;;;6071863;23;19968;-80
2021/12/28 10:34:59;;;;;;;;;;;8.40;76.60;;;;;;6071460;23;19952;-80
2021/12/28 10:37:28;;;;;;;;;;;8.20;77.40;;;;;;6071115;23;19924;-79
2021/12/28 10:39:56;;;;;;;;;;;8.10;77.70;;;;;;6070838;23;19917;-80
2021/12/28 10:42:37;;;;;;;;;;;8.20;78.10;;;;;;6071109;23;20287;-77
2021/12/28 10:45:06;;;;;;;;;;;8.20;78.00;;;;;;6096132;23;19976;-80
2021/12/28 10:47:34;;;;;;;;;;;8.30;78.10;;;;;;6096702;23;20335;-80
2021/12/28 10:50:08;;;;;;;;;;;8.40;76.90;;;;;;6072028;23;19968;-80
2021/12/28 10:52:39;;;;;;;;;;;8.40;75.70;;;;;;6072940;23;19968;-77
2021/12/28 10:55:20;;;;;;;;;;;8.30;76.00;;;;;;6069887;23;19917;-77
2021/12/28 10:57:47;;;;;;;;;;;8.40;76.70;;;;;;6094680;23;19924;-80
2021/12/28 11:00:27;;;;;;;;;;;8.40;76.40;;;;;;6073011;23;19921;-79
2021/12/28 11:03:12;;;;;;;;;;;8.50;76.90;;;;;;6070422;23;19988;-80
2021/12/28 11:05:39;;;;;;;;;;;8.50;77.00;;;;;;6072609;23;19997;-80
2021/12/28 11:08:09;;;;;;;;;;;8.60;77.20;;;;;;6070627;23;20363;-77
2021/12/28 11:10:39;;;;;;;;;;;8.60;77.00;;;;;;6073634;23;19921;-79
2021/12/28 11:13:06;;;;;;;;;;;8.70;76.70;;;;;;6072244;23;20315;-81
2021/12/28 11:15:37;;;;;;;;;;;8.90;75.50;;;;;;6073614;23;19988;-80
2021/12/28 11:18:16;;;;;;;;;;;8.90;75.80;;;;;;6074442;23;19917;-79
2021/12/28 11:20:44;;;;;;;;;;;9.00;74.00;;;;;;6073566;23;19917;-79
2021/12/28 11:23:12;;;;;;;;;;;8.90;74.00;;;;;;6072811;23;20357;-77
2021/12/28 11:25:39;;;;;;;;;;;8.90;72.60;;;;;;6098977;23;19945;-77
2021/12/28 11:28:22;;;;;;;;;;;8.90;73.50;;;;;;6097225;23;20356;-80
2021/12/28 11:31:04;;;;;;;;;;;8.90;74.40;;;;;;6069717;23;19921;-80
2021/12/28 11:33:45;;;;;;;;;;;8.90;72.90;;;;;;6071822;23;19945;-80
2021/12/28 11:36:12;;;;;;;;;;;8.90;73.80;;;;;;6096985;23;19917;-79
2021/12/28 11:38:39;;;;;;;;;;;8.90;74.50;;;;;;6072417;23;19921;-77
2021/12/28 11:41:06;;;;;;;;;;;8.90;74.30;;;;;;6071876;23;19921;-79
2021/12/28 11:43:34;;;;;;;;;;;8.90;74.70;;;;;;6071289;23;19972;-80
2021/12/28 11:46:06;;;;;;;;;;;8.90;74.60;;;;;;6083010;23;19925;-80
2021/12/28 11:48:33;;;;;;;;;;;8.90;74.20;;;;;;6100997;23;19997;-80
2021/12/28 11:51:00;;;;;;;;;;;8.90;74.50;;;;;;6099804;23;20397;-80
2021/12/28 11:53:27;;;;;;;;;;;9.00;74.20;;;;;;6103332;23;19967;-79
2021/12/28 11:55:56;;;;;;;;;;;9.10;72.80;;;;;;6100257;23;19944;-78
2021/12/28 11:58:41;;;;;;;;;;;9.10;73.00;;;;;;6127913;23;19924;-79
2021/12/28 12:01:08;;;;;;;;;;;9.10;73.00;;;;;;6099109;23;19948;-77
2021/12/28 12:03:39;;;;;;;;;;;9.00;73.80;;;;;;6125623;23;20337;-78
2021/12/28 12:06:06;;;;;;;;;;;8.90;74.40;;;;;;6100928;23;19921;-77
2021/12/28 12:08:35;;;;;;;;;;;8.90;74.70;;;;;;6101843;23;20334;-80
2021/12/28 12:11:03;;;;;;;;;;;9.00;74.70;;;;;;6126658;23;19917;-80
2021/12/28 12:13:30;;;;;;;;;;;9.00;73.80;;;;;;6101215;23;19921;-80
2021/12/28 12:16:00;;;;;;;;;;;9.00;74.30;;;;;;6100775;23;19931;-79
2021/12/28 12:18:29;;;;;;;;;;;9.00;73.80;;;;;;6100539;23;19923;-80
2021/12/28 12:20:58;;;;;;;;;;;9.10;73.90;;;;;;6099927;23;19920;-80
2021/12/28 12:23:30;;;;;;;;;;;9.10;73.20;;;;;;6100474;23;19984;-79
2021/12/28 12:26:05;;;;;;;;;;;9.00;74.60;;;;;;6099856;23;20338;-80
2021/12/28 12:28:36;;;;;;;;;;;9.00;75.50;;;;;;6099936;23;19917;-80
2021/12/28 12:31:05;;;;;;;;;;;9.00;75.80;;;;;;6098910;23;20294;-80
2021/12/28 12:33:36;;;;;;;;;;;8.90;76.00;;;;;;6100261;23;19917;-77
2021/12/28 12:36:03;;;;;;;;;;;8.90;76.00;;;;;;6098586;23;19917;-80
2021/12/28 12:38:31;;;;;;;;;;;8.90;76.60;;;;;;6099824;23;19925;-80
2021/12/28 12:40:59;;;;;;;;;;;8.90;77.30;;;;;;6098469;23;19920;-79
2021/12/28 12:43:35;;;;;;;;;;;8.90;75.80;;;;;;6100503;23;19925;-77
2021/12/28 12:46:09;;;;;;;;;;;8.90;75.80;;;;;;6101831;23;19968;-80
2021/12/28 12:48:37;;;;;;;;;;;9.00;75.80;;;;;;6100456;23;19944;-80
2021/12/28 12:51:18;;;;;;;;;;;9.00;75.80;;;;;;6100787;23;19924;-80
2021/12/28 12:53:47;;;;;;;;;;;9.10;75.60;;;;;;6101595;23;19917;-79
2021/12/28 12:56:18;;;;;;;;;;;9.10;75.00;;;;;;6099197;23;19916;-77
2021/12/28 12:58:46;;;;;;;;;;;9.20;75.50;;;;;;6125891;23;19921;-79
2021/12/28 13:01:25;;;;;;;;;;;9.20;75.40;;;;;;6100290;23;19917;-77
2021/12/28 13:03:57;;;;;;;;;;;9.20;76.00;;;;;;6099982;23;20350;-79
2021/12/28 13:06:39;;;;;;;;;;;9.30;76.40;;;;;;6101133;23;20398;-79
2021/12/28 13:09:13;;;;;;;;;;;9.30;76.40;;;;;;6126679;23;19928;-79
2021/12/28 13:11:42;;;;;;;;;;;9.30;75.90;;;;;;6101310;23;19996;-79
2021/12/28 13:14:11;;;;;;;;;;;9.30;76.00;;;;;;6100160;23;19917;-79
2021/12/28 13:16:38;;;;;;;;;;;9.30;76.30;;;;;;6100850;23;19964;-77